Observation data for Fluvanna on 01/20/2019      Previous  Date  Next       Current Mesonet Observations  Soil Data  Daily Summary Page  Observations in Plain Language
KFVS 200600Z 13005KT 00/M05 A303 RMK A01 T00041046  RH  069%=      5-min Rain = 0
KFVS 200605Z 13005KT 00/M05 A3031 RMK A01 T00011047  RH  070%=      5-min Rain = 0
KFVS 200610Z 13005KT M00/M05 A3031 RMK A01 T10021048  RH  072%=      5-min Rain = 0
KFVS 200615Z 12005KT M00/M05 A3032 RMK A01 T10041048  RH  072%=      5-min Rain = 0
KFVS 200620Z 12007KT M00/M05 A3031 RMK A01 T10041049  RH  072%=      5-min Rain = 0
KFVS 200625Z 12008KT M01/M05 A3031 RMK A01 T10061050  RH  072%=      5-min Rain = 0
KFVS 200630Z 12008KT M01/M05 A3031 RMK A01 T10081050  RH  073%=      5-min Rain = 0
KFVS 200635Z 12007KT M01/M05 A3032 RMK A01 T10081050  RH  073%=      5-min Rain = 0
KFVS 200640Z 11007KT M01/M05 A3032 RMK A01 T10101051  RH  074%=      5-min Rain = 0
KFVS 200645Z 10007KT M01/M05 A3032 RMK A01 T10121053  RH  074%=      5-min Rain = 0
KFVS 200650Z 11008KT M01/M05 A3032 RMK A01 T10141054  RH  075%=      5-min Rain = 0
KFVS 200655Z 12008KT M01/M06 A3032 RMK A01 T10131055  RH  074%=      5-min Rain = 0
KFVS 200700Z 12007KT M01/M06 A3032 RMK A01 T10141055  RH  074%=      5-min Rain = 0
KFVS 200705Z 12006KT M02/M06 A3032 RMK A01 T10151055  RH  075%=      5-min Rain = 0
KFVS 200710Z 12007KT M02/M06 A3031 RMK A01 T10191056  RH  076%=      5-min Rain = 0
KFVS 200715Z 12007KT M02/M06 A3032 RMK A01 T10211056  RH  077%=      5-min Rain = 0
KFVS 200720Z 12008KT M02/M06 A3031 RMK A01 T10211057  RH  077%=      5-min Rain = 0
KFVS 200725Z 11008KT M02/M06 A3031 RMK A01 T10211058  RH  076%=      5-min Rain = 0
KFVS 200730Z 11008KT M02/M06 A303 RMK A01 T10231059  RH  076%=      5-min Rain = 0
KFVS 200735Z 10007KT M02/M06 A303 RMK A01 T10231059  RH  076%=      5-min Rain = 0
KFVS 200740Z 10007KT M02/M06 A303 RMK A01 T10231060  RH  076%=      5-min Rain = 0
KFVS 200745Z 11006KT M02/M06 A303 RMK A01 T10221061  RH  075%=      5-min Rain = 0
KFVS 200750Z 12006KT M02/M06 A303 RMK A01 T10241062  RH  075%=      5-min Rain = 0
KFVS 200755Z 12006KT M03/M06 A303 RMK A01 T10251063  RH  075%=      5-min Rain = 0
KFVS 200800Z 11006KT M02/M06 A303 RMK A01 T10241063  RH  075%=      5-min Rain = 0
KFVS 200805Z 10006KT M03/M06 A303 RMK A01 T10261064  RH  075%=      5-min Rain = 0
KFVS 200810Z 11006KT M03/M07 A303 RMK A01 T10281065  RH  076%=      5-min Rain = 0
KFVS 200815Z 11007KT M03/M07 A303 RMK A01 T10291066  RH  076%=      5-min Rain = 0
KFVS 200820Z 12007KT M03/M07 A303 RMK A01 T10281066  RH  075%=      5-min Rain = 0
KFVS 200825Z 13006KT M03/M07 A3031 RMK A01 T10291066  RH  076%=      5-min Rain = 0
KFVS 200830Z 13006KT M03/M07 A3031 RMK A01 T10321065  RH  078%=      5-min Rain = 0
KFVS 200835Z 11006KT M03/M06 A303 RMK A01 T10301064  RH  078%=      5-min Rain = 0
KFVS 200840Z 12006KT M03/M07 A303 RMK A01 T10311065  RH  077%=      5-min Rain = 0
KFVS 200845Z 13007KT M03/M07 A303 RMK A01 T10311065  RH  077%=      5-min Rain = 0
KFVS 200850Z 13007KT M03/M07 A303 RMK A01 T10301066  RH  076%=      5-min Rain = 0
KFVS 200855Z 12007KT M03/M07 A303 RMK A01 T10281066  RH  075%=      5-min Rain = 0
KFVS 200900Z 13007KT M03/M07 A303 RMK A01 T10291067  RH  075%=      5-min Rain = 0
KFVS 200905Z 13007KT M03/M07 A303 RMK A01 T10291068  RH  075%=      5-min Rain = 0
KFVS 200910Z 13005KT M03/M07 A303 RMK A01 T10311068  RH  075%=      5-min Rain = 0
KFVS 200915Z 14005KT M03/M07 A303 RMK A01 T10291069  RH  074%=      5-min Rain = 0
KFVS 200920Z 14006KT M03/M07 A303 RMK A01 T10281071  RH  073%=      5-min Rain = 0
KFVS 200925Z 12005KT M03/M07 A303 RMK A01 T10291071  RH  072%=      5-min Rain = 0
KFVS 200930Z 11006KT M03/M07 A303 RMK A01 T10271072  RH  071%=      5-min Rain = 0
KFVS 200935Z 11006KT M03/M07 A303 RMK A01 T10281072  RH  071%=      5-min Rain = 0
KFVS 200940Z 11007KT M03/M07 A303 RMK A01 T10271073  RH  071%=      5-min Rain = 0
KFVS 200945Z 12006KT M03/M07 A3031 RMK A01 T10261073  RH  070%=      5-min Rain = 0
KFVS 200950Z 12006KT M03/M07 A3031 RMK A01 T10281073  RH  071%=      5-min Rain = 0
KFVS 200955Z 12006KT M03/M07 A303 RMK A01 T10301074  RH  072%=      5-min Rain = 0
KFVS 201000Z 11006KT M03/M07 A303 RMK A01 T10311074  RH  072%=      5-min Rain = 0
KFVS 201005Z 10006KT M03/M08 A303 RMK A01 T10341075  RH  073%=      5-min Rain = 0
KFVS 201010Z 10007KT M04/M08 A303 RMK A01 T10351075  RH  074%=      5-min Rain = 0
KFVS 201015Z 11006KT M04/M08 A303 RMK A01 T10351075  RH  074%=      5-min Rain = 0
KFVS 201020Z 11006KT M04/M08 A303 RMK A01 T10361075  RH  074%=      5-min Rain = 0
KFVS 201025Z 11007KT M04/M07 A303 RMK A01 T10351074  RH  074%=      5-min Rain = 0
KFVS 201030Z 11006KT M03/M07 A303 RMK A01 T10331074  RH  073%=      5-min Rain = 0
KFVS 201035Z 11006KT M03/M07 A303 RMK A01 T10311073  RH  072%=      5-min Rain = 0
KFVS 201040Z 11007KT M03/M07 A303 RMK A01 T10301073  RH  072%=      5-min Rain = 0
KFVS 201045Z 12007KT M03/M07 A3029 RMK A01 T10281073  RH  071%=      5-min Rain = 0
KFVS 201050Z 12007KT M03/M07 A3029 RMK A01 T10271073  RH  071%=      5-min Rain = 0
KFVS 201055Z 12008KT M03/M07 A3029 RMK A01 T10281072  RH  072%=      5-min Rain = 0
KFVS 201100Z 12007KT M03/M07 A3029 RMK A01 T10291073  RH  072%=      5-min Rain = 0
KFVS 201105Z 12007KT M03/M07 A3028 RMK A01 T10301073  RH  072%=      5-min Rain = 0
KFVS 201110Z 12007KT M03/M07 A3028 RMK A01 T10311073  RH  073%=      5-min Rain = 0
KFVS 201115Z 12007KT M03/M07 A3028 RMK A01 T10311073  RH  073%=      5-min Rain = 0
KFVS 201120Z 12007KT M03/M07 A3028 RMK A01 T10321073  RH  073%=      5-min Rain = 0
KFVS 201125Z 12006KT M03/M07 A3028 RMK A01 T10331073  RH  074%=      5-min Rain = 0
KFVS 201130Z 12006KT M03/M07 A3028 RMK A01 T10331074  RH  074%=      5-min Rain = 0
KFVS 201135Z 12006KT M03/M07 A3028 RMK A01 T10341074  RH  074%=      5-min Rain = 0
KFVS 201140Z 12006KT M03/M07 A3028 RMK A01 T10341074  RH  074%=      5-min Rain = 0
KFVS 201145Z 13005KT M04/M08 A3028 RMK A01 T10351075  RH  074%=      5-min Rain = 0
KFVS 201150Z 14004KT M04/M08 A3028 RMK A01 T10361075  RH  074%=      5-min Rain = 0
KFVS 201155Z 13006KT M04/M08 A3028 RMK A01 T10351075  RH  074%=      5-min Rain = 0
KFVS 201200Z 14007KT M03/M07 A3028 RMK A01 T10341074  RH  074%=      5-min Rain = 0
KFVS 201205Z 14008KT M03/M07 A3028 RMK A01 T10341073  RH  074%=      5-min Rain = 0
KFVS 201210Z 14008KT M03/M07 A3028 RMK A01 T10321073  RH  073%=      5-min Rain = 0
KFVS 201215Z 15008KT M03/M07 A3028 RMK A01 T10301073  RH  072%=      5-min Rain = 0
KFVS 201220Z 15008KT M03/M07 A3027 RMK A01 T10291074  RH  071%=      5-min Rain = 0
KFVS 201225Z 15009KT M03/M07 A3027 RMK A01 T10271074  RH  070%=      5-min Rain = 0
KFVS 201230Z 15009KT M03/M07 A3027 RMK A01 T10261074  RH  070%=      5-min Rain = 0
KFVS 201235Z 15009KT M03/M07 A3026 RMK A01 T10271073  RH  070%=      5-min Rain = 0
KFVS 201240Z 15009KT M03/M07 A3026 RMK A01 T10261073  RH  070%=      5-min Rain = 0
KFVS 201245Z 15009KT M03/M07 A3026 RMK A01 T10261072  RH  071%=      5-min Rain = 0
KFVS 201250Z 15009KT M03/M07 A3026 RMK A01 T10261071  RH  071%=      5-min Rain = 0
KFVS 201255Z 15008KT M03/M07 A3026 RMK A01 T10281071  RH  072%=      5-min Rain = 0
KFVS 201300Z 15008KT M03/M07 A3026 RMK A01 T10301070  RH  073%=      5-min Rain = 0
KFVS 201305Z 16008KT M03/M07 A3026 RMK A01 T10301069  RH  075%=      5-min Rain = 0
KFVS 201310Z 16008KT M03/M07 A3026 RMK A01 T10281066  RH  075%=      5-min Rain = 0
KFVS 201315Z 15009KT M03/M07 A3027 RMK A01 T10271065  RH  076%=      5-min Rain = 0
KFVS 201320Z 16009KT M03/M06 A3027 RMK A01 T10251063  RH  075%=      5-min Rain = 0
KFVS 201325Z 16010KT M02/M06 A3027 RMK A01 T10211062  RH  074%=      5-min Rain = 0
KFVS 201330Z 16010KT M02/M06 A3027 RMK A01 T10211061  RH  074%=      5-min Rain = 0
KFVS 201335Z 16010KT M02/M06 A3027 RMK A01 T10201061  RH  074%=      5-min Rain = 0
KFVS 201340Z 16010KT M02/M06 A3027 RMK A01 T10201062  RH  073%=      5-min Rain = 0
KFVS 201345Z 16010KT M02/M06 A3027 RMK A01 T10211062  RH  073%=      5-min Rain = 0
KFVS 201350Z 16010KT M02/M06 A3027 RMK A01 T10211062  RH  073%=      5-min Rain = 0
KFVS 201355Z 16010KT M02/M06 A3027 RMK A01 T10201062  RH  073%=      5-min Rain = 0
KFVS 201400Z 16010KT M02/M06 A3027 RMK A01 T10201062  RH  073%=      5-min Rain = 0
KFVS 201405Z 16009KT M02/M06 A3028 RMK A01 T10201062  RH  073%=      5-min Rain = 0
KFVS 201410Z 17009KT M02/M06 A3028 RMK A01 T10201063  RH  073%=      5-min Rain = 0
KFVS 201415Z 17010KT M02/M06 A3028 RMK A01 T10191062  RH  072%=      5-min Rain = 0
KFVS 201420Z 17010KT M02/M06 A3028 RMK A01 T10171061  RH  072%=      5-min Rain = 0
KFVS 201425Z 17012KT M02/M06 A3028 RMK A01 T10161060  RH  072%=      5-min Rain = 0
KFVS 201430Z 17011KT M02/M06 A3027 RMK A01 T10161059  RH  072%=      5-min Rain = 0
KFVS 201435Z 17011KT M02/M06 A3028 RMK A01 T10161059  RH  073%=      5-min Rain = 0
KFVS 201440Z 17011KT M02/M06 A3028 RMK A01 T10171059  RH  073%=      5-min Rain = 0
KFVS 201445Z 18011KT M02/M06 A3028 RMK A01 T10181059  RH  074%=      5-min Rain = 0
KFVS 201450Z 17010KT M02/M06 A3028 RMK A01 T10171058  RH  074%=      5-min Rain = 0
KFVS 201455Z 17009KT M02/M06 A3028 RMK A01 T10161056  RH  074%=      5-min Rain = 0
KFVS 201500Z 17009KT M01/M05 A3028 RMK A01 T10131054  RH  074%=      5-min Rain = 0
KFVS 201505Z 17010KT M01/M05 A3028 RMK A01 T10081052  RH  073%=      5-min Rain = 0
KFVS 201510Z 17010KT M00/M05 A3028 RMK A01 T10041050  RH  071%=      5-min Rain = 0
KFVS 201515Z 18011KT M00/M05 A3028 RMK A01 T10011049  RH  070%=      5-min Rain = 0
KFVS 201520Z 18011KT 00/M05 A3027 RMK A01 T00041048  RH  069%=      5-min Rain = 0
KFVS 201525Z 18011KT 01/M05 A3027 RMK A01 T00091046  RH  067%=      5-min Rain = 0
KFVS 201530Z 18011KT 01/M05 A3027 RMK A01 T00111047  RH  065%=      5-min Rain = 0
KFVS 201535Z 18012KT 01/M05 A3027 RMK A01 T00141047  RH  064%=      5-min Rain = 0
KFVS 201540Z 18012KT 02/M05 A3027 RMK A01 T00161048  RH  063%=      5-min Rain = 0
KFVS 201545Z 18012KT 02/M05 A3027 RMK A01 T00171047  RH  062%=      5-min Rain = 0
KFVS 201550Z 18012KT 02/M05 A3027 RMK A01 T00191048  RH  061%=      5-min Rain = 0
KFVS 201555Z 18013KT 02/M05 A3027 RMK A01 T00211047  RH  061%=      5-min Rain = 0
KFVS 201600Z 18013KT 03/M04 A3027 RMK A01 T00251044  RH  061%=      5-min Rain = 0
KFVS 201605Z 18012KT 03/M04 A3027 RMK A01 T00261044  RH  060%=      5-min Rain = 0
KFVS 201610Z 19011G16KT 03/M04 A3027 RMK A01 T00281041  RH  060%=      5-min Rain = 0
KFVS 201615Z 18013KT 03/M04 A3027 RMK A01 T00281043  RH  060%=      5-min Rain = 0
KFVS 201620Z 18011KT 03/M04 A3027 RMK A01 T00301041  RH  060%=      5-min Rain = 0
KFVS 201625Z 18013KT 03/M04 A3027 RMK A01 T00341039  RH  059%=      5-min Rain = 0
KFVS 201630Z 19013KT 04/M04 A3027 RMK A01 T00361040  RH  058%=      5-min Rain = 0
KFVS 201635Z 18012KT 04/M04 A3026 RMK A01 T00401036  RH  058%=      5-min Rain = 0
KFVS 201640Z 18013KT 04/M04 A3026 RMK A01 T00401038  RH  057%=      5-min Rain = 0
KFVS 201645Z 18012KT 04/M04 A3026 RMK A01 T00431035  RH  057%=      5-min Rain = 0
KFVS 201650Z 19012KT 05/M03 A3026 RMK A01 T00461034  RH  056%=      5-min Rain = 0
KFVS 201655Z 19012KT 05/M03 A3026 RMK A01 T00541032  RH  054%=      5-min Rain = 0
KFVS 201700Z 19014KT 05/M04 A3025 RMK A01 T00531035  RH  053%=      5-min Rain = 0
KFVS 201705Z 19014KT 05/M04 A3025 RMK A01 T00531035  RH  053%=      5-min Rain = 0
KFVS 201710Z 19013KT 05/M03 A3025 RMK A01 T00531034  RH  054%=      5-min Rain = 0
KFVS 201715Z 19012KT 05/M03 A3025 RMK A01 T00531034  RH  054%=      5-min Rain = 0
KFVS 201720Z 20012KT 06/M03 A3025 RMK A01 T00571032  RH  053%=      5-min Rain = 0
KFVS 201725Z 19012KT 06/M03 A3024 RMK A01 T00591031  RH  053%=      5-min Rain = 0
KFVS 201730Z 20013KT 06/M03 A3024 RMK A01 T00641028  RH  052%=      5-min Rain = 0
KFVS 201735Z 19012KT 07/M03 A3024 RMK A01 T00651028  RH  052%=      5-min Rain = 0
KFVS 201740Z 20013KT 07/M03 A3024 RMK A01 T00681029  RH  050%=      5-min Rain = 0
KFVS 201745Z 20012KT 07/M03 A3024 RMK A01 T00701028  RH  050%=      5-min Rain = 0
KFVS 201750Z 20015KT 08/M03 A3024 RMK A01 T00751027  RH  049%=      5-min Rain = 0
KFVS 201755Z 20013G18KT 08/M03 A3024 RMK A01 T00771026  RH  048%=      5-min Rain = 0
KFVS 201800Z 20011KT 08/M02 A3023 RMK A01 T00811023  RH  048%=      5-min Rain = 0
KFVS 201805Z 21014KT 09/M02 A3023 RMK A01 T00851022  RH  047%=      5-min Rain = 0
KFVS 201810Z 20013KT 08/M02 A3023 RMK A01 T00841023  RH  047%=      5-min Rain = 0
KFVS 201815Z 20013KT 09/M02 A3022 RMK A01 T00881021  RH  046%=      5-min Rain = 0
KFVS 201820Z 19013KT 09/M02 A3022 RMK A01 T00901021  RH  046%=      5-min Rain = 0
KFVS 201825Z 20012KT 10/M02 A3022 RMK A01 T00961018  RH  045%=      5-min Rain = 0
KFVS 201830Z 20012G17KT 10/M02 A3021 RMK A01 T00971018  RH  045%=      5-min Rain = 0
KFVS 201835Z 20014KT 10/M02 A3021 RMK A01 T01011017  RH  044%=      5-min Rain = 0
KFVS 201840Z 20015KT 10/M02 A302 RMK A01 T01041017  RH  043%=      5-min Rain = 0
KFVS 201845Z 20014G19KT 11/M01 A302 RMK A01 T01111013  RH  042%=      5-min Rain = 0
KFVS 201850Z 20015KT 11/M01 A3019 RMK A01 T01131014  RH  041%=      5-min Rain = 0
KFVS 201855Z 20015KT 12/M01 A3018 RMK A01 T01181013  RH  041%=      5-min Rain = 0
KFVS 201900Z 20015KT 12/M01 A3018 RMK A01 T01211014  RH  039%=      5-min Rain = 0
KFVS 201905Z 20013KT 12/M01 A3017 RMK A01 T01241014  RH  039%=      5-min Rain = 0
KFVS 201910Z 20015KT 13/M01 A3017 RMK A01 T01321014  RH  037%=      5-min Rain = 0
KFVS 201915Z 20017KT 13/M02 A3017 RMK A01 T01331024  RH  034%=      5-min Rain = 0
KFVS 201920Z 21015KT 13/M02 A3017 RMK A01 T01331024  RH  034%=      5-min Rain = 0
KFVS 201925Z 21014KT 13/M03 A3016 RMK A01 T01341025  RH  033%=      5-min Rain = 0
KFVS 201930Z 20015KT 14/M02 A3016 RMK A01 T01371023  RH  033%=      5-min Rain = 0
KFVS 201935Z 19015KT 14/M02 A3015 RMK A01 T01381024  RH  033%=      5-min Rain = 0
KFVS 201940Z 20014KT 14/M02 A3015 RMK A01 T01391024  RH  033%=      5-min Rain = 0
KFVS 201945Z 20015KT 14/M03 A3014 RMK A01 T01411027  RH  031%=      5-min Rain = 0
KFVS 201950Z 21014KT 14/M03 A3014 RMK A01 T01431026  RH  031%=      5-min Rain = 0
KFVS 201955Z 21014KT 14/M03 A3014 RMK A01 T01431029  RH  030%=      5-min Rain = 0
KFVS 202000Z 21012KT 14/M03 A3014 RMK A01 T01431029  RH  030%=      5-min Rain = 0
KFVS 202005Z 20013KT 14/M03 A3014 RMK A01 T01441029  RH  030%=      5-min Rain = 0
KFVS 202010Z 20014KT 15/M03 A3014 RMK A01 T01461028  RH  030%=      5-min Rain = 0
KFVS 202015Z 20013G18KT 15/M03 A3014 RMK A01 T01451031  RH  030%=      5-min Rain = 0
KFVS 202020Z 21014KT 15/M03 A3013 RMK A01 T01511028  RH  029%=      5-min Rain = 0
KFVS 202025Z 22015G20KT 15/M03 A3013 RMK A01 T01511032  RH  028%=      5-min Rain = 0
KFVS 202030Z 23013KT 15/M03 A3013 RMK A01 T01521028  RH  029%=      5-min Rain = 0
KFVS 202035Z 21014G20KT 16/M03 A3013 RMK A01 T01561027  RH  028%=      5-min Rain = 0
KFVS 202040Z 21013KT 15/M03 A3013 RMK A01 T01531029  RH  029%=      5-min Rain = 0
KFVS 202045Z 22014G19KT 15/M03 A3012 RMK A01 T01531028  RH  029%=      5-min Rain = 0
KFVS 202050Z 21014G19KT 15/M03 A3012 RMK A01 T01541027  RH  029%=      5-min Rain = 0
KFVS 202055Z 20012KT 16/M03 A3012 RMK A01 T01561028  RH  028%=      5-min Rain = 0
KFVS 202100Z 21013KT 16/M03 A3011 RMK A01 T01581026  RH  028%=      5-min Rain = 0
KFVS 202105Z 21013KT 16/M03 A3011 RMK A01 T01581028  RH  028%=      5-min Rain = 0
KFVS 202110Z 20012G18KT 16/M03 A3011 RMK A01 T01571028  RH  028%=      5-min Rain = 0
KFVS 202115Z 21012KT 16/M03 A3011 RMK A01 T01621027  RH  027%=      5-min Rain = 0
KFVS 202120Z 20012G19KT 16/M03 A3011 RMK A01 T01641028  RH  027%=      5-min Rain = 0
KFVS 202125Z 21014KT 16/M03 A301 RMK A01 T01611028  RH  027%=      5-min Rain = 0
KFVS 202130Z 20014KT 16/M03 A301 RMK A01 T01611028  RH  028%=      5-min Rain = 0
KFVS 202135Z 21014KT 16/M03 A301 RMK A01 T01621026  RH  028%=      5-min Rain = 0
KFVS 202140Z 21015KT 16/M03 A301 RMK A01 T01621028  RH  027%=      5-min Rain = 0
KFVS 202145Z 20015KT 16/M03 A301 RMK A01 T01611029  RH  027%=      5-min Rain = 0
KFVS 202150Z 20015KT 16/M03 A3009 RMK A01 T01611028  RH  027%=      5-min Rain = 0
KFVS 202155Z 20014G20KT 16/M03 A3009 RMK A01 T01611028  RH  027%=      5-min Rain = 0
KFVS 202200Z 21015KT 16/M03 A3009 RMK A01 T01631028  RH  027%=      5-min Rain = 0
KFVS 202205Z 20014G19KT 16/M03 A3009 RMK A01 T01631027  RH  027%=      5-min Rain = 0
KFVS 202210Z 19014G19KT 17/M03 A3009 RMK A01 T01651027  RH  027%=      5-min Rain = 0
KFVS 202215Z 19015KT 17/M03 A3009 RMK A01 T01651028  RH  027%=      5-min Rain = 0
KFVS 202220Z 20015KT 16/M03 A3008 RMK A01 T01631031  RH  026%=      5-min Rain = 0
KFVS 202225Z 19016G21KT 16/M03 A3008 RMK A01 T01631032  RH  026%=      5-min Rain = 0
KFVS 202230Z 19015G20KT 16/M03 A3008 RMK A01 T01631032  RH  026%=      5-min Rain = 0
KFVS 202235Z 20015KT 16/M03 A3008 RMK A01 T01631032  RH  026%=      5-min Rain = 0
KFVS 202240Z 20013KT 16/M03 A3008 RMK A01 T01631032  RH  026%=      5-min Rain = 0
KFVS 202245Z 20016G21KT 16/M04 A3008 RMK A01 T01621035  RH  026%=      5-min Rain = 0
KFVS 202250Z 19016KT 16/M04 A3008 RMK A01 T01621036  RH  026%=      5-min Rain = 0
KFVS 202255Z 19013G18KT 16/M04 A3008 RMK A01 T01621035  RH  026%=      5-min Rain = 0
KFVS 202300Z 19015KT 16/M04 A3008 RMK A01 T01611036  RH  026%=      5-min Rain = 0
KFVS 202305Z 20015KT 16/M04 A3008 RMK A01 T01591038  RH  026%=      5-min Rain = 0
KFVS 202310Z 20014KT 16/M03 A3008 RMK A01 T01581034  RH  027%=      5-min Rain = 0
KFVS 202315Z 20013G18KT 16/M03 A3008 RMK A01 T01571034  RH  027%=      5-min Rain = 0
KFVS 202320Z 20013KT 16/M03 A3008 RMK A01 T01561033  RH  027%=      5-min Rain = 0
KFVS 202325Z 20012KT 16/M03 A3008 RMK A01 T01551032  RH  028%=      5-min Rain = 0
KFVS 202330Z 20012KT 15/M03 A3008 RMK A01 T01531034  RH  028%=      5-min Rain = 0
KFVS 202335Z 20012KT 15/M03 A3008 RMK A01 T01511032  RH  028%=      5-min Rain = 0
KFVS 202340Z 20011KT 15/M03 A3008 RMK A01 T01471031  RH  029%=      5-min Rain = 0
KFVS 202345Z 19011KT 14/M03 A3008 RMK A01 T01431031  RH  030%=      5-min Rain = 0
KFVS 202350Z 19010KT 14/M03 A3008 RMK A01 T01401032  RH  030%=      5-min Rain = 0
KFVS 202355Z 19010KT 14/M03 A3008 RMK A01 T01361032  RH  031%=      5-min Rain = 0
KFVS 210000Z 19010KT 13/M03 A3008 RMK A01 T01321032  RH  032%=      5-min Rain = 0
KFVS 210005Z 19010KT 13/M03 A3008 RMK A01 T01301032  RH  033%=      5-min Rain = 0
KFVS 210010Z 19010KT 13/M03 A3008 RMK A01 T01261031  RH  034%=      5-min Rain = 0
KFVS 210015Z 19010KT 12/M03 A3008 RMK A01 T01231031  RH  034%=      5-min Rain = 0
KFVS 210020Z 18010KT 12/M03 A3007 RMK A01 T01191031  RH  035%=      5-min Rain = 0
KFVS 210025Z 18010KT 12/M03 A3007 RMK A01 T01161031  RH  036%=      5-min Rain = 0
KFVS 210030Z 18010KT 11/M03 A3007 RMK A01 T01111032  RH  037%=      5-min Rain = 0
KFVS 210035Z 18010KT 11/M03 A3006 RMK A01 T01091032  RH  037%=      5-min Rain = 0
KFVS 210040Z 18010KT 11/M03 A3006 RMK A01 T01081033  RH  037%=      5-min Rain = 0
KFVS 210045Z 18011KT 11/M03 A3006 RMK A01 T01081033  RH  037%=      5-min Rain = 0
KFVS 210050Z 18011KT 11/M03 A3006 RMK A01 T01091032  RH  037%=      5-min Rain = 0
KFVS 210055Z 18011KT 11/M03 A3006 RMK A01 T01101032  RH  037%=      5-min Rain = 0
KFVS 210100Z 18012KT 11/M03 A3006 RMK A01 T01091032  RH  037%=      5-min Rain = 0
KFVS 210105Z 18011KT 11/M03 A3006 RMK A01 T01101032  RH  037%=      5-min Rain = 0
KFVS 210110Z 18011KT 11/M03 A3006 RMK A01 T01081032  RH  038%=      5-min Rain = 0
KFVS 210115Z 18011KT 11/M03 A3006 RMK A01 T01071031  RH  038%=      5-min Rain = 0
KFVS 210120Z 18011KT 11/M03 A3006 RMK A01 T01051032  RH  038%=      5-min Rain = 0
KFVS 210125Z 18012KT 10/M03 A3006 RMK A01 T01031032  RH  039%=      5-min Rain = 0
KFVS 210130Z 18012KT 10/M03 A3006 RMK A01 T01031032  RH  039%=      5-min Rain = 0
KFVS 210135Z 18011KT 10/M03 A3006 RMK A01 T01021033  RH  039%=      5-min Rain = 0
KFVS 210140Z 18010KT 10/M03 A3006 RMK A01 T00981033  RH  040%=      5-min Rain = 0
KFVS 210145Z 18010KT 09/M03 A3006 RMK A01 T00941032  RH  041%=      5-min Rain = 0
KFVS 210150Z 18011KT 10/M03 A3006 RMK A01 T00951032  RH  041%=      5-min Rain = 0
KFVS 210155Z 19012KT 10/M03 A3006 RMK A01 T00971032  RH  040%=      5-min Rain = 0
KFVS 210200Z 18011KT 10/M03 A3006 RMK A01 T00981031  RH  040%=      5-min Rain = 0
KFVS 210205Z 18012KT 10/M03 A3006 RMK A01 T01001031  RH  040%=      5-min Rain = 0
KFVS 210210Z 18012KT 10/M03 A3006 RMK A01 T00991030  RH  041%=      5-min Rain = 0
KFVS 210215Z 18012KT 10/M03 A3006 RMK A01 T00961029  RH  041%=      5-min Rain = 0
KFVS 210220Z 18012KT 10/M03 A3005 RMK A01 T00961028  RH  042%=      5-min Rain = 0
KFVS 210225Z 18011KT 10/M03 A3005 RMK A01 T00951028  RH  042%=      5-min Rain = 0
KFVS 210230Z 18011KT 09/M03 A3005 RMK A01 T00941028  RH  043%=      5-min Rain = 0
KFVS 210235Z 18012KT 09/M03 A3005 RMK A01 T00921026  RH  044%=      5-min Rain = 0
KFVS 210240Z 18013KT 09/M03 A3005 RMK A01 T00931025  RH  044%=      5-min Rain = 0
KFVS 210245Z 18013KT 09/M02 A3005 RMK A01 T00941023  RH  044%=      5-min Rain = 0
KFVS 210250Z 18014KT 10/M02 A3004 RMK A01 T00951022  RH  044%=      5-min Rain = 0
KFVS 210255Z 18014KT 10/M02 A3004 RMK A01 T00961021  RH  044%=      5-min Rain = 0
KFVS 210300Z 18013KT 10/M02 A3004 RMK A01 T00951020  RH  045%=      5-min Rain = 0
KFVS 210305Z 18013KT 09/M02 A3004 RMK A01 T00931019  RH  046%=      5-min Rain = 0
KFVS 210310Z 18013KT 09/M02 A3004 RMK A01 T00911018  RH  047%=      5-min Rain = 0
KFVS 210315Z 18012KT 09/M02 A3004 RMK A01 T00901018  RH  047%=      5-min Rain = 0
KFVS 210320Z 18012KT 09/M02 A3004 RMK A01 T00901017  RH  047%=      5-min Rain = 0
KFVS 210325Z 18012KT 09/M02 A3004 RMK A01 T00881017  RH  048%=      5-min Rain = 0
KFVS 210330Z 18012KT 09/M02 A3004 RMK A01 T00861016  RH  049%=      5-min Rain = 0
KFVS 210335Z 18012KT 09/M02 A3003 RMK A01 T00851015  RH  050%=      5-min Rain = 0
KFVS 210340Z 18012KT 09/M02 A3003 RMK A01 T00861015  RH  050%=      5-min Rain = 0
KFVS 210345Z 18012KT 09/M02 A3003 RMK A01 T00851015  RH  050%=      5-min Rain = 0
KFVS 210350Z 18012KT 09/M01 A3003 RMK A01 T00851014  RH  050%=      5-min Rain = 0
KFVS 210355Z 18012KT 08/M01 A3002 RMK A01 T00841014  RH  051%=      5-min Rain = 0
KFVS 210400Z 18013KT 08/M01 A3002 RMK A01 T00831014  RH  051%=      5-min Rain = 0
KFVS 210405Z 18013KT 08/M01 A3002 RMK A01 T00841013  RH  051%=      5-min Rain = 0
KFVS 210410Z 18013KT 08/M01 A3002 RMK A01 T00831014  RH  051%=      5-min Rain = 0
KFVS 210415Z 18013KT 08/M01 A3002 RMK A01 T00811014  RH  052%=      5-min Rain = 0
KFVS 210420Z 18013KT 08/M01 A3002 RMK A01 T00811013  RH  052%=      5-min Rain = 0
KFVS 210425Z 18013KT 08/M01 A3002 RMK A01 T00791014  RH  052%=      5-min Rain = 0
KFVS 210430Z 18013KT 08/M01 A3002 RMK A01 T00771014  RH  053%=      5-min Rain = 0
KFVS 210435Z 18013KT 08/M01 A3002 RMK A01 T00751014  RH  054%=      5-min Rain = 0
KFVS 210440Z 18013KT 07/M01 A3002 RMK A01 T00731014  RH  055%=      5-min Rain = 0
KFVS 210445Z 18012KT 07/M01 A3002 RMK A01 T00711014  RH  055%=      5-min Rain = 0
KFVS 210450Z 18012KT 07/M02 A3002 RMK A01 T00691015  RH  056%=      5-min Rain = 0
KFVS 210455Z 19011KT 07/M02 A3003 RMK A01 T00671015  RH  056%=      5-min Rain = 0
KFVS 210500Z 18010KT 07/M02 A3003 RMK A01 T00651016  RH  057%=      5-min Rain = 0
KFVS 210505Z 18009KT 06/M02 A3003 RMK A01 T00611017  RH  058%=      5-min Rain = 0
KFVS 210510Z 19010KT 06/M02 A3003 RMK A01 T00591017  RH  059%=      5-min Rain = 0
KFVS 210515Z 18011KT 06/M02 A3003 RMK A01 T00591016  RH  059%=      5-min Rain = 0
KFVS 210520Z 18011KT 06/M02 A3003 RMK A01 T00591016  RH  059%=      5-min Rain = 0
KFVS 210525Z 19011KT 06/M02 A3003 RMK A01 T00581016  RH  059%=      5-min Rain = 0
KFVS 210530Z 19010KT 06/M02 A3004 RMK A01 T00591015  RH  059%=      5-min Rain = 0
KFVS 210535Z 19009KT 06/M02 A3004 RMK A01 T00581016  RH  059%=      5-min Rain = 0
KFVS 210540Z 19010KT 06/M02 A3004 RMK A01 T00561017  RH  060%=      5-min Rain = 0
KFVS 210545Z 19011KT 06/M02 A3004 RMK A01 T00561015  RH  061%=      5-min Rain = 0
KFVS 210550Z 19011KT 06/M02 A3003 RMK A01 T00581015  RH  060%=      5-min Rain = 0
KFVS 210555Z 19012KT 06/M02 A3003 RMK A01 T00611015  RH  059%=      5-min Rain = 0

Page generated in 0.0092 seconds.